sensor_id;sensor_type;location;lat;lon;timestamp;P1;durP1;ratioP1;P2;durP2;ratioP2
809;SDS011;387;48.772;9.186;2023-07-09T00:00:46;9.47;;;5.33;;
809;SDS011;387;48.772;9.186;2023-07-09T00:03:13;8.50;;;5.30;;
809;SDS011;387;48.772;9.186;2023-07-09T00:05:40;8.10;;;5.20;;
809;SDS011;387;48.772;9.186;2023-07-09T00:08:09;9.30;;;5.00;;
809;SDS011;387;48.772;9.186;2023-07-09T00:10:52;7.87;;;4.77;;
809;SDS011;387;48.772;9.186;2023-07-09T00:13:18;7.77;;;5.00;;
809;SDS011;387;48.772;9.186;2023-07-09T00:15:44;8.83;;;5.03;;
809;SDS011;387;48.772;9.186;2023-07-09T00:18:10;7.00;;;4.70;;
809;SDS011;387;48.772;9.186;2023-07-09T00:20:36;9.00;;;4.67;;
809;SDS011;387;48.772;9.186;2023-07-09T00:23:01;9.00;;;5.50;;
809;SDS011;387;48.772;9.186;2023-07-09T00:25:30;11.50;;;5.73;;
809;SDS011;387;48.772;9.186;2023-07-09T00:27:56;13.23;;;6.77;;
809;SDS011;387;48.772;9.186;2023-07-09T00:30:22;10.53;;;5.97;;
809;SDS011;387;48.772;9.186;2023-07-09T00:32:49;11.60;;;6.13;;
809;SDS011;387;48.772;9.186;2023-07-09T00:35:17;8.57;;;6.13;;
809;SDS011;387;48.772;9.186;2023-07-09T00:37:43;12.93;;;6.53;;
809;SDS011;387;48.772;9.186;2023-07-09T00:40:10;14.07;;;6.30;;
809;SDS011;387;48.772;9.186;2023-07-09T00:42:47;8.40;;;4.83;;
809;SDS011;387;48.772;9.186;2023-07-09T00:45:18;8.43;;;5.13;;
809;SDS011;387;48.772;9.186;2023-07-09T00:55:58;11.83;;;5.83;;
809;SDS011;387;48.772;9.186;2023-07-09T00:58:29;12.93;;;6.13;;
809;SDS011;387;48.772;9.186;2023-07-09T01:01:00;8.50;;;5.37;;
809;SDS011;387;48.772;9.186;2023-07-09T01:03:37;10.80;;;5.27;;
809;SDS011;387;48.772;9.186;2023-07-09T01:06:07;11.37;;;5.43;;
809;SDS011;387;48.772;9.186;2023-07-09T01:08:35;10.90;;;5.37;;
809;SDS011;387;48.772;9.186;2023-07-09T01:11:13;10.73;;;5.83;;
809;SDS011;387;48.772;9.186;2023-07-09T01:13:46;6.40;;;4.80;;
809;SDS011;387;48.772;9.186;2023-07-09T01:16:16;7.10;;;4.50;;
809;SDS011;387;48.772;9.186;2023-07-09T01:18:43;8.07;;;4.50;;
809;SDS011;387;48.772;9.186;2023-07-09T01:21:09;9.33;;;4.57;;
809;SDS011;387;48.772;9.186;2023-07-09T01:23:42;7.73;;;4.43;;
809;SDS011;387;48.772;9.186;2023-07-09T01:26:13;8.23;;;4.50;;
809;SDS011;387;48.772;9.186;2023-07-09T01:28:40;9.80;;;5.90;;
809;SDS011;387;48.772;9.186;2023-07-09T01:31:12;9.50;;;5.23;;
809;SDS011;387;48.772;9.186;2023-07-09T01:33:40;8.00;;;5.87;;
809;SDS011;387;48.772;9.186;2023-07-09T01:36:10;8.23;;;5.40;;
809;SDS011;387;48.772;9.186;2023-07-09T01:38:38;7.40;;;5.63;;
809;SDS011;387;48.772;9.186;2023-07-09T01:41:04;10.17;;;6.13;;
809;SDS011;387;48.772;9.186;2023-07-09T01:43:30;11.60;;;6.00;;
809;SDS011;387;48.772;9.186;2023-07-09T01:45:57;9.77;;;5.60;;
809;SDS011;387;48.772;9.186;2023-07-09T01:48:24;11.53;;;6.23;;
809;SDS011;387;48.772;9.186;2023-07-09T01:50:51;11.47;;;6.50;;
809;SDS011;387;48.772;9.186;2023-07-09T01:53:17;8.20;;;5.83;;
809;SDS011;387;48.772;9.186;2023-07-09T01:55:48;10.20;;;6.23;;
809;SDS011;387;48.772;9.186;2023-07-09T01:58:19;11.20;;;6.10;;
809;SDS011;387;48.772;9.186;2023-07-09T02:00:49;9.10;;;5.43;;
809;SDS011;387;48.772;9.186;2023-07-09T02:03:16;12.33;;;6.30;;
809;SDS011;387;48.772;9.186;2023-07-09T02:05:43;9.63;;;6.07;;
809;SDS011;387;48.772;9.186;2023-07-09T02:08:08;7.73;;;5.40;;
809;SDS011;387;48.772;9.186;2023-07-09T02:10:34;8.70;;;5.80;;
809;SDS011;387;48.772;9.186;2023-07-09T02:13:00;11.57;;;6.67;;
809;SDS011;387;48.772;9.186;2023-07-09T02:15:26;10.33;;;5.97;;
809;SDS011;387;48.772;9.186;2023-07-09T02:17:52;9.23;;;5.10;;
809;SDS011;387;48.772;9.186;2023-07-09T02:20:17;8.27;;;5.50;;
809;SDS011;387;48.772;9.186;2023-07-09T02:22:44;8.37;;;5.40;;
809;SDS011;387;48.772;9.186;2023-07-09T02:25:10;10.73;;;5.77;;
809;SDS011;387;48.772;9.186;2023-07-09T02:27:36;7.80;;;6.00;;
809;SDS011;387;48.772;9.186;2023-07-09T02:30:02;7.37;;;5.50;;
809;SDS011;387;48.772;9.186;2023-07-09T02:32:30;10.40;;;5.03;;
809;SDS011;387;48.772;9.186;2023-07-09T02:34:55;14.00;;;5.70;;
809;SDS011;387;48.772;9.186;2023-07-09T02:37:22;11.77;;;5.57;;
809;SDS011;387;48.772;9.186;2023-07-09T02:39:49;9.63;;;5.80;;
809;SDS011;387;48.772;9.186;2023-07-09T02:42:16;8.20;;;5.03;;
809;SDS011;387;48.772;9.186;2023-07-09T02:44:44;7.53;;;5.10;;
809;SDS011;387;48.772;9.186;2023-07-09T02:47:10;9.50;;;5.27;;
809;SDS011;387;48.772;9.186;2023-07-09T02:49:37;10.10;;;6.10;;
809;SDS011;387;48.772;9.186;2023-07-09T02:52:04;10.30;;;5.47;;
809;SDS011;387;48.772;9.186;2023-07-09T02:54:30;8.60;;;5.10;;
809;SDS011;387;48.772;9.186;2023-07-09T02:56:55;10.87;;;5.50;;
809;SDS011;387;48.772;9.186;2023-07-09T02:59:21;8.77;;;5.57;;
809;SDS011;387;48.772;9.186;2023-07-09T03:01:47;11.90;;;6.67;;
809;SDS011;387;48.772;9.186;2023-07-09T03:04:15;8.77;;;5.30;;
809;SDS011;387;48.772;9.186;2023-07-09T03:06:41;8.10;;;4.80;;
809;SDS011;387;48.772;9.186;2023-07-09T03:09:07;9.33;;;5.67;;
809;SDS011;387;48.772;9.186;2023-07-09T03:11:34;10.07;;;6.17;;
809;SDS011;387;48.772;9.186;2023-07-09T03:14:00;7.10;;;5.07;;
809;SDS011;387;48.772;9.186;2023-07-09T03:16:27;8.63;;;5.33;;
809;SDS011;387;48.772;9.186;2023-07-09T03:18:54;7.17;;;5.00;;
809;SDS011;387;48.772;9.186;2023-07-09T03:21:22;8.20;;;4.80;;
809;SDS011;387;48.772;9.186;2023-07-09T03:23:48;8.87;;;5.00;;
809;SDS011;387;48.772;9.186;2023-07-09T03:26:14;8.70;;;5.63;;
809;SDS011;387;48.772;9.186;2023-07-09T03:28:40;8.77;;;5.47;;
809;SDS011;387;48.772;9.186;2023-07-09T03:31:06;9.67;;;5.60;;
809;SDS011;387;48.772;9.186;2023-07-09T03:33:31;9.13;;;5.10;;
809;SDS011;387;48.772;9.186;2023-07-09T03:35:57;9.57;;;5.30;;
809;SDS011;387;48.772;9.186;2023-07-09T03:38:23;9.00;;;5.37;;
809;SDS011;387;48.772;9.186;2023-07-09T03:40:54;10.13;;;5.10;;
809;SDS011;387;48.772;9.186;2023-07-09T03:43:20;9.50;;;4.90;;
809;SDS011;387;48.772;9.186;2023-07-09T03:45:47;7.00;;;4.70;;
809;SDS011;387;48.772;9.186;2023-07-09T03:48:14;9.37;;;5.77;;
809;SDS011;387;48.772;9.186;2023-07-09T03:50:41;8.97;;;5.10;;
809;SDS011;387;48.772;9.186;2023-07-09T03:53:08;8.77;;;5.43;;
809;SDS011;387;48.772;9.186;2023-07-09T03:55:34;10.00;;;4.73;;
809;SDS011;387;48.772;9.186;2023-07-09T03:57:59;7.83;;;4.73;;
809;SDS011;387;48.772;9.186;2023-07-09T04:00:27;9.00;;;5.30;;
809;SDS011;387;48.772;9.186;2023-07-09T04:02:53;8.30;;;5.23;;
809;SDS011;387;48.772;9.186;2023-07-09T04:05:21;8.70;;;5.13;;
809;SDS011;387;48.772;9.186;2023-07-09T04:07:48;7.60;;;4.60;;
809;SDS011;387;48.772;9.186;2023-07-09T04:10:13;10.37;;;6.07;;
809;SDS011;387;48.772;9.186;2023-07-09T04:12:39;7.60;;;4.93;;
809;SDS011;387;48.772;9.186;2023-07-09T04:15:05;10.77;;;5.73;;
809;SDS011;387;48.772;9.186;2023-07-09T04:17:32;9.40;;;5.70;;
809;SDS011;387;48.772;9.186;2023-07-09T04:19:58;11.27;;;5.40;;
809;SDS011;387;48.772;9.186;2023-07-09T04:22:23;11.40;;;5.53;;
809;SDS011;387;48.772;9.186;2023-07-09T04:24:49;9.40;;;5.30;;
809;SDS011;387;48.772;9.186;2023-07-09T04:27:17;8.73;;;6.00;;
809;SDS011;387;48.772;9.186;2023-07-09T04:29:43;9.27;;;5.60;;
809;SDS011;387;48.772;9.186;2023-07-09T04:32:12;7.80;;;5.30;;
809;SDS011;387;48.772;9.186;2023-07-09T04:34:39;11.03;;;5.17;;
809;SDS011;387;48.772;9.186;2023-07-09T04:37:08;7.87;;;5.63;;
809;SDS011;387;48.772;9.186;2023-07-09T04:39:36;9.90;;;5.87;;
809;SDS011;387;48.772;9.186;2023-07-09T04:42:02;8.83;;;5.20;;
809;SDS011;387;48.772;9.186;2023-07-09T04:44:28;9.13;;;5.93;;
809;SDS011;387;48.772;9.186;2023-07-09T04:46:53;10.37;;;5.90;;
809;SDS011;387;48.772;9.186;2023-07-09T04:49:19;10.93;;;5.43;;
809;SDS011;387;48.772;9.186;2023-07-09T04:51:45;15.43;;;5.70;;
809;SDS011;387;48.772;9.186;2023-07-09T04:54:10;8.47;;;5.73;;
809;SDS011;387;48.772;9.186;2023-07-09T04:56:38;7.87;;;5.10;;
809;SDS011;387;48.772;9.186;2023-07-09T04:59:04;9.70;;;5.83;;
809;SDS011;387;48.772;9.186;2023-07-09T05:01:30;9.40;;;5.67;;
809;SDS011;387;48.772;9.186;2023-07-09T05:03:56;10.40;;;6.23;;
809;SDS011;387;48.772;9.186;2023-07-09T05:06:21;9.10;;;5.50;;
809;SDS011;387;48.772;9.186;2023-07-09T05:08:47;13.03;;;5.97;;
809;SDS011;387;48.772;9.186;2023-07-09T05:11:13;8.07;;;5.03;;
809;SDS011;387;48.772;9.186;2023-07-09T05:13:40;10.47;;;6.10;;
809;SDS011;387;48.772;9.186;2023-07-09T05:16:05;9.43;;;5.90;;
809;SDS011;387;48.772;9.186;2023-07-09T05:18:31;11.63;;;5.93;;
809;SDS011;387;48.772;9.186;2023-07-09T05:20:57;9.77;;;5.80;;
809;SDS011;387;48.772;9.186;2023-07-09T05:23:24;8.23;;;5.60;;
809;SDS011;387;48.772;9.186;2023-07-09T05:25:59;8.37;;;5.80;;
809;SDS011;387;48.772;9.186;2023-07-09T05:28:27;13.60;;;6.77;;
809;SDS011;387;48.772;9.186;2023-07-09T05:30:53;10.10;;;6.73;;
809;SDS011;387;48.772;9.186;2023-07-09T05:33:19;10.20;;;6.60;;
809;SDS011;387;48.772;9.186;2023-07-09T05:35:45;13.80;;;6.13;;
809;SDS011;387;48.772;9.186;2023-07-09T05:38:11;9.50;;;5.80;;
809;SDS011;387;48.772;9.186;2023-07-09T05:40:38;9.30;;;6.70;;
809;SDS011;387;48.772;9.186;2023-07-09T05:43:03;9.20;;;6.27;;
809;SDS011;387;48.772;9.186;2023-07-09T05:45:29;11.33;;;6.80;;
809;SDS011;387;48.772;9.186;2023-07-09T05:47:57;9.37;;;6.07;;
809;SDS011;387;48.772;9.186;2023-07-09T05:50:24;8.17;;;5.63;;
809;SDS011;387;48.772;9.186;2023-07-09T05:52:49;12.10;;;5.67;;
809;SDS011;387;48.772;9.186;2023-07-09T05:55:15;11.23;;;6.27;;
809;SDS011;387;48.772;9.186;2023-07-09T05:57:41;8.73;;;6.20;;
809;SDS011;387;48.772;9.186;2023-07-09T06:00:06;11.80;;;6.17;;
809;SDS011;387;48.772;9.186;2023-07-09T06:02:33;11.67;;;6.47;;
809;SDS011;387;48.772;9.186;2023-07-09T06:04:58;10.43;;;6.50;;
809;SDS011;387;48.772;9.186;2023-07-09T06:07:24;9.60;;;6.07;;
809;SDS011;387;48.772;9.186;2023-07-09T06:09:50;8.70;;;6.20;;
809;SDS011;387;48.772;9.186;2023-07-09T06:12:15;14.53;;;6.10;;
809;SDS011;387;48.772;9.186;2023-07-09T06:14:43;9.43;;;5.40;;
809;SDS011;387;48.772;9.186;2023-07-09T06:17:09;10.90;;;5.63;;
809;SDS011;387;48.772;9.186;2023-07-09T06:19:34;7.43;;;5.97;;
809;SDS011;387;48.772;9.186;2023-07-09T06:22:00;12.20;;;6.03;;
809;SDS011;387;48.772;9.186;2023-07-09T06:24:26;8.87;;;5.77;;
809;SDS011;387;48.772;9.186;2023-07-09T06:26:51;8.87;;;5.60;;
809;SDS011;387;48.772;9.186;2023-07-09T06:29:17;12.23;;;7.20;;
809;SDS011;387;48.772;9.186;2023-07-09T06:31:42;11.43;;;6.37;;
809;SDS011;387;48.772;9.186;2023-07-09T06:34:08;14.40;;;7.50;;
809;SDS011;387;48.772;9.186;2023-07-09T06:36:34;8.87;;;5.90;;
809;SDS011;387;48.772;9.186;2023-07-09T06:39:01;11.80;;;7.07;;
809;SDS011;387;48.772;9.186;2023-07-09T06:41:27;12.33;;;6.63;;
809;SDS011;387;48.772;9.186;2023-07-09T06:43:53;9.07;;;6.30;;
809;SDS011;387;48.772;9.186;2023-07-09T06:46:18;11.90;;;6.87;;
809;SDS011;387;48.772;9.186;2023-07-09T06:48:45;10.20;;;5.93;;
809;SDS011;387;48.772;9.186;2023-07-09T06:51:11;10.23;;;6.30;;
809;SDS011;387;48.772;9.186;2023-07-09T06:53:37;8.10;;;5.70;;
809;SDS011;387;48.772;9.186;2023-07-09T06:56:04;9.70;;;6.87;;
809;SDS011;387;48.772;9.186;2023-07-09T06:58:30;10.20;;;6.60;;
809;SDS011;387;48.772;9.186;2023-07-09T07:01:00;9.80;;;6.40;;
809;SDS011;387;48.772;9.186;2023-07-09T07:03:30;9.40;;;7.20;;
809;SDS011;387;48.772;9.186;2023-07-09T07:05:57;12.13;;;6.47;;
809;SDS011;387;48.772;9.186;2023-07-09T07:08:24;11.27;;;7.03;;
809;SDS011;387;48.772;9.186;2023-07-09T07:10:53;10.80;;;6.70;;
809;SDS011;387;48.772;9.186;2023-07-09T07:13:28;11.23;;;6.00;;
809;SDS011;387;48.772;9.186;2023-07-09T07:15:58;13.90;;;6.47;;
809;SDS011;387;48.772;9.186;2023-07-09T07:18:23;11.10;;;7.00;;
809;SDS011;387;48.772;9.186;2023-07-09T07:20:49;8.77;;;6.17;;
809;SDS011;387;48.772;9.186;2023-07-09T07:23:16;9.33;;;6.27;;
809;SDS011;387;48.772;9.186;2023-07-09T07:25:42;13.10;;;6.67;;
809;SDS011;387;48.772;9.186;2023-07-09T07:28:09;12.10;;;7.20;;
809;SDS011;387;48.772;9.186;2023-07-09T07:30:35;10.47;;;6.43;;
809;SDS011;387;48.772;9.186;2023-07-09T07:33:00;8.53;;;6.50;;
809;SDS011;387;48.772;9.186;2023-07-09T07:35:26;10.37;;;7.47;;
809;SDS011;387;48.772;9.186;2023-07-09T07:37:51;10.90;;;6.37;;
809;SDS011;387;48.772;9.186;2023-07-09T07:40:17;12.03;;;6.47;;
809;SDS011;387;48.772;9.186;2023-07-09T07:42:43;12.47;;;6.57;;
809;SDS011;387;48.772;9.186;2023-07-09T07:45:08;11.50;;;7.07;;
809;SDS011;387;48.772;9.186;2023-07-09T07:47:34;10.13;;;6.87;;
809;SDS011;387;48.772;9.186;2023-07-09T07:50:00;10.60;;;6.97;;
809;SDS011;387;48.772;9.186;2023-07-09T07:52:27;11.33;;;6.30;;
809;SDS011;387;48.772;9.186;2023-07-09T07:54:53;9.20;;;6.50;;
809;SDS011;387;48.772;9.186;2023-07-09T07:57:19;10.93;;;6.33;;
809;SDS011;387;48.772;9.186;2023-07-09T07:59:44;9.00;;;6.20;;
809;SDS011;387;48.772;9.186;2023-07-09T08:02:12;11.70;;;6.70;;
809;SDS011;387;48.772;9.186;2023-07-09T08:04:39;8.70;;;5.83;;
809;SDS011;387;48.772;9.186;2023-07-09T08:07:06;10.23;;;6.53;;
809;SDS011;387;48.772;9.186;2023-07-09T08:09:33;9.87;;;5.90;;
809;SDS011;387;48.772;9.186;2023-07-09T08:11:59;11.90;;;6.63;;
809;SDS011;387;48.772;9.186;2023-07-09T08:14:26;12.00;;;6.50;;
809;SDS011;387;48.772;9.186;2023-07-09T08:16:51;11.67;;;6.97;;
809;SDS011;387;48.772;9.186;2023-07-09T08:19:20;8.60;;;6.47;;
809;SDS011;387;48.772;9.186;2023-07-09T08:21:45;7.23;;;5.90;;
809;SDS011;387;48.772;9.186;2023-07-09T08:24:12;9.30;;;5.90;;
809;SDS011;387;48.772;9.186;2023-07-09T08:26:39;13.40;;;5.90;;
809;SDS011;387;48.772;9.186;2023-07-09T08:29:05;11.40;;;6.20;;
809;SDS011;387;48.772;9.186;2023-07-09T08:31:30;10.63;;;6.20;;
809;SDS011;387;48.772;9.186;2023-07-09T08:33:56;10.37;;;6.60;;
809;SDS011;387;48.772;9.186;2023-07-09T08:36:22;8.93;;;6.60;;
809;SDS011;387;48.772;9.186;2023-07-09T08:38:48;8.33;;;6.53;;
809;SDS011;387;48.772;9.186;2023-07-09T08:47:09;9.53;;;6.40;;
809;SDS011;387;48.772;9.186;2023-07-09T08:49:54;11.03;;;7.10;;
809;SDS011;387;48.772;9.186;2023-07-09T08:52:29;12.20;;;6.83;;
809;SDS011;387;48.772;9.186;2023-07-09T08:55:25;11.70;;;7.13;;
809;SDS011;387;48.772;9.186;2023-07-09T08:57:56;9.83;;;6.33;;
809;SDS011;387;48.772;9.186;2023-07-09T09:00:29;12.03;;;6.87;;
809;SDS011;387;48.772;9.186;2023-07-09T09:02:59;10.80;;;7.30;;
809;SDS011;387;48.772;9.186;2023-07-09T09:05:46;8.50;;;6.93;;
809;SDS011;387;48.772;9.186;2023-07-09T09:08:33;10.70;;;6.33;;
809;SDS011;387;48.772;9.186;2023-07-09T09:11:07;12.20;;;7.20;;
809;SDS011;387;48.772;9.186;2023-07-09T09:13:49;13.37;;;6.97;;
809;SDS011;387;48.772;9.186;2023-07-09T09:16:28;11.33;;;6.77;;
809;SDS011;387;48.772;9.186;2023-07-09T09:21:33;10.47;;;6.70;;
809;SDS011;387;48.772;9.186;2023-07-09T09:24:26;11.47;;;6.70;;
809;SDS011;387;48.772;9.186;2023-07-09T09:27:07;10.90;;;6.60;;
809;SDS011;387;48.772;9.186;2023-07-09T09:29:34;12.30;;;6.33;;
809;SDS011;387;48.772;9.186;2023-07-09T09:32:00;9.50;;;6.47;;
809;SDS011;387;48.772;9.186;2023-07-09T09:34:47;9.90;;;5.93;;
809;SDS011;387;48.772;9.186;2023-07-09T09:37:15;13.50;;;6.53;;
809;SDS011;387;48.772;9.186;2023-07-09T09:39:55;9.60;;;6.63;;
809;SDS011;387;48.772;9.186;2023-07-09T09:42:23;9.80;;;6.87;;
809;SDS011;387;48.772;9.186;2023-07-09T09:44:50;9.27;;;5.63;;
809;SDS011;387;48.772;9.186;2023-07-09T09:47:19;7.80;;;5.90;;
809;SDS011;387;48.772;9.186;2023-07-09T09:49:45;10.83;;;6.07;;
809;SDS011;387;48.772;9.186;2023-07-09T09:52:12;7.37;;;6.27;;
809;SDS011;387;48.772;9.186;2023-07-09T09:54:40;6.73;;;5.30;;
809;SDS011;387;48.772;9.186;2023-07-09T09:57:22;9.53;;;5.97;;
809;SDS011;387;48.772;9.186;2023-07-09T09:59:49;6.80;;;5.17;;
809;SDS011;387;48.772;9.186;2023-07-09T10:02:19;8.33;;;5.27;;
809;SDS011;387;48.772;9.186;2023-07-09T10:04:49;8.00;;;5.10;;
809;SDS011;387;48.772;9.186;2023-07-09T10:07:20;8.00;;;5.17;;
809;SDS011;387;48.772;9.186;2023-07-09T10:09:55;6.00;;;3.97;;
809;SDS011;387;48.772;9.186;2023-07-09T10:12:32;6.67;;;4.80;;
809;SDS011;387;48.772;9.186;2023-07-09T10:18:02;7.90;;;4.27;;
809;SDS011;387;48.772;9.186;2023-07-09T10:20:44;8.30;;;4.10;;
809;SDS011;387;48.772;9.186;2023-07-09T10:28:54;7.60;;;4.30;;
809;SDS011;387;48.772;9.186;2023-07-09T10:31:38;8.60;;;4.50;;
809;SDS011;387;48.772;9.186;2023-07-09T10:39:43;9.90;;;4.23;;
809;SDS011;387;48.772;9.186;2023-07-09T10:42:21;8.30;;;4.33;;
809;SDS011;387;48.772;9.186;2023-07-09T10:44:59;5.73;;;3.80;;
809;SDS011;387;48.772;9.186;2023-07-09T10:47:36;7.63;;;3.80;;
809;SDS011;387;48.772;9.186;2023-07-09T10:50:05;6.77;;;4.13;;
809;SDS011;387;48.772;9.186;2023-07-09T10:52:39;12.60;;;4.00;;
809;SDS011;387;48.772;9.186;2023-07-09T11:00:36;5.50;;;3.60;;
809;SDS011;387;48.772;9.186;2023-07-09T11:03:11;8.13;;;3.80;;
809;SDS011;387;48.772;9.186;2023-07-09T11:05:45;9.03;;;4.60;;
809;SDS011;387;48.772;9.186;2023-07-09T11:08:17;6.57;;;4.07;;
809;SDS011;387;48.772;9.186;2023-07-09T11:10:49;5.20;;;3.87;;
809;SDS011;387;48.772;9.186;2023-07-09T11:13:21;5.80;;;4.47;;
809;SDS011;387;48.772;9.186;2023-07-09T11:15:59;7.43;;;4.20;;
809;SDS011;387;48.772;9.186;2023-07-09T11:18:32;9.03;;;4.10;;
809;SDS011;387;48.772;9.186;2023-07-09T11:21:00;6.63;;;4.40;;
809;SDS011;387;48.772;9.186;2023-07-09T11:23:26;9.90;;;4.43;;
809;SDS011;387;48.772;9.186;2023-07-09T11:26:20;7.30;;;4.53;;
809;SDS011;387;48.772;9.186;2023-07-09T11:28:54;8.03;;;4.27;;
809;SDS011;387;48.772;9.186;2023-07-09T11:31:41;6.97;;;3.83;;
809;SDS011;387;48.772;9.186;2023-07-09T11:34:15;9.10;;;4.33;;
809;SDS011;387;48.772;9.186;2023-07-09T11:42:01;6.23;;;4.10;;
809;SDS011;387;48.772;9.186;2023-07-09T11:44:33;12.90;;;5.40;;
809;SDS011;387;48.772;9.186;2023-07-09T11:49:48;9.13;;;4.83;;
809;SDS011;387;48.772;9.186;2023-07-09T11:52:37;7.03;;;4.87;;
809;SDS011;387;48.772;9.186;2023-07-09T11:55:27;11.87;;;4.93;;
809;SDS011;387;48.772;9.186;2023-07-09T11:57:57;8.00;;;4.57;;
809;SDS011;387;48.772;9.186;2023-07-09T12:00:25;7.27;;;4.47;;
809;SDS011;387;48.772;9.186;2023-07-09T12:02:54;8.97;;;4.70;;
809;SDS011;387;48.772;9.186;2023-07-09T12:05:22;9.90;;;4.27;;
809;SDS011;387;48.772;9.186;2023-07-09T12:07:51;11.97;;;4.90;;
809;SDS011;387;48.772;9.186;2023-07-09T12:10:19;11.60;;;5.43;;
809;SDS011;387;48.772;9.186;2023-07-09T12:12:53;8.17;;;4.13;;
809;SDS011;387;48.772;9.186;2023-07-09T12:15:23;6.67;;;4.13;;
809;SDS011;387;48.772;9.186;2023-07-09T12:20:24;10.50;;;5.07;;
809;SDS011;387;48.772;9.186;2023-07-09T12:22:53;12.23;;;5.50;;
809;SDS011;387;48.772;9.186;2023-07-09T12:25:29;9.47;;;4.90;;
809;SDS011;387;48.772;9.186;2023-07-09T12:27:57;8.50;;;4.30;;
809;SDS011;387;48.772;9.186;2023-07-09T12:30:23;7.77;;;4.80;;
809;SDS011;387;48.772;9.186;2023-07-09T12:32:50;8.50;;;4.20;;
809;SDS011;387;48.772;9.186;2023-07-09T12:35:19;9.33;;;4.97;;
809;SDS011;387;48.772;9.186;2023-07-09T12:37:46;11.10;;;4.80;;
809;SDS011;387;48.772;9.186;2023-07-09T12:40:17;10.80;;;4.57;;
809;SDS011;387;48.772;9.186;2023-07-09T12:42:46;10.27;;;4.47;;
809;SDS011;387;48.772;9.186;2023-07-09T12:45:19;9.27;;;4.90;;
809;SDS011;387;48.772;9.186;2023-07-09T12:47:46;10.10;;;5.27;;
809;SDS011;387;48.772;9.186;2023-07-09T12:53:18;7.97;;;4.70;;
809;SDS011;387;48.772;9.186;2023-07-09T12:55:48;7.97;;;5.03;;
809;SDS011;387;48.772;9.186;2023-07-09T12:58:19;9.53;;;5.03;;
809;SDS011;387;48.772;9.186;2023-07-09T13:00:50;8.10;;;4.33;;
809;SDS011;387;48.772;9.186;2023-07-09T13:03:21;11.27;;;5.20;;
809;SDS011;387;48.772;9.186;2023-07-09T13:06:01;8.73;;;4.80;;
809;SDS011;387;48.772;9.186;2023-07-09T13:08:32;8.13;;;4.80;;
809;SDS011;387;48.772;9.186;2023-07-09T13:11:16;9.53;;;4.40;;
809;SDS011;387;48.772;9.186;2023-07-09T13:13:55;12.03;;;5.53;;
809;SDS011;387;48.772;9.186;2023-07-09T13:16:23;10.00;;;5.10;;
809;SDS011;387;48.772;9.186;2023-07-09T13:18:49;9.40;;;4.40;;
809;SDS011;387;48.772;9.186;2023-07-09T13:21:18;14.57;;;5.20;;
809;SDS011;387;48.772;9.186;2023-07-09T13:23:44;6.70;;;3.90;;
809;SDS011;387;48.772;9.186;2023-07-09T13:26:11;6.50;;;3.80;;
809;SDS011;387;48.772;9.186;2023-07-09T13:28:41;10.37;;;5.50;;
809;SDS011;387;48.772;9.186;2023-07-09T13:31:13;10.60;;;4.30;;
809;SDS011;387;48.772;9.186;2023-07-09T13:33:41;10.87;;;5.27;;
809;SDS011;387;48.772;9.186;2023-07-09T13:36:15;7.27;;;4.70;;
809;SDS011;387;48.772;9.186;2023-07-09T13:38:41;9.20;;;3.87;;
809;SDS011;387;48.772;9.186;2023-07-09T13:41:11;8.17;;;4.43;;
809;SDS011;387;48.772;9.186;2023-07-09T13:43:39;14.00;;;4.70;;
809;SDS011;387;48.772;9.186;2023-07-09T13:46:08;10.80;;;4.90;;
809;SDS011;387;48.772;9.186;2023-07-09T13:48:36;6.93;;;4.27;;
809;SDS011;387;48.772;9.186;2023-07-09T13:51:10;12.20;;;4.93;;
809;SDS011;387;48.772;9.186;2023-07-09T13:53:40;10.83;;;4.70;;
809;SDS011;387;48.772;9.186;2023-07-09T13:56:06;10.10;;;5.10;;
809;SDS011;387;48.772;9.186;2023-07-09T13:58:32;7.50;;;5.20;;
809;SDS011;387;48.772;9.186;2023-07-09T14:00:58;8.97;;;4.77;;
809;SDS011;387;48.772;9.186;2023-07-09T14:03:30;6.80;;;4.43;;
809;SDS011;387;48.772;9.186;2023-07-09T14:05:56;9.50;;;4.50;;
809;SDS011;387;48.772;9.186;2023-07-09T14:08:22;7.90;;;4.97;;
809;SDS011;387;48.772;9.186;2023-07-09T14:10:48;7.83;;;4.77;;
809;SDS011;387;48.772;9.186;2023-07-09T14:13:15;6.70;;;4.80;;
809;SDS011;387;48.772;9.186;2023-07-09T14:15:43;7.23;;;4.60;;
809;SDS011;387;48.772;9.186;2023-07-09T14:18:17;8.10;;;4.43;;
809;SDS011;387;48.772;9.186;2023-07-09T14:20:44;9.30;;;4.83;;
809;SDS011;387;48.772;9.186;2023-07-09T14:23:11;11.17;;;5.40;;
809;SDS011;387;48.772;9.186;2023-07-09T14:25:38;8.33;;;4.90;;
809;SDS011;387;48.772;9.186;2023-07-09T14:28:04;9.70;;;4.83;;
809;SDS011;387;48.772;9.186;2023-07-09T14:30:45;7.83;;;4.60;;
809;SDS011;387;48.772;9.186;2023-07-09T14:33:17;7.83;;;4.93;;
809;SDS011;387;48.772;9.186;2023-07-09T14:35:44;7.10;;;4.60;;
809;SDS011;387;48.772;9.186;2023-07-09T14:40:50;7.97;;;4.40;;
809;SDS011;387;48.772;9.186;2023-07-09T14:43:17;8.40;;;5.00;;
809;SDS011;387;48.772;9.186;2023-07-09T14:45:43;9.17;;;4.67;;
809;SDS011;387;48.772;9.186;2023-07-09T14:48:13;6.07;;;4.57;;
809;SDS011;387;48.772;9.186;2023-07-09T14:50:41;8.10;;;5.10;;
809;SDS011;387;48.772;9.186;2023-07-09T14:53:14;9.83;;;4.37;;
809;SDS011;387;48.772;9.186;2023-07-09T14:55:42;6.90;;;4.37;;
809;SDS011;387;48.772;9.186;2023-07-09T14:58:16;10.20;;;5.10;;
809;SDS011;387;48.772;9.186;2023-07-09T15:00:43;8.20;;;4.27;;
809;SDS011;387;48.772;9.186;2023-07-09T15:03:11;12.33;;;5.00;;
809;SDS011;387;48.772;9.186;2023-07-09T15:05:47;7.20;;;4.10;;
809;SDS011;387;48.772;9.186;2023-07-09T15:08:13;9.33;;;4.33;;
809;SDS011;387;48.772;9.186;2023-07-09T15:10:41;8.20;;;5.37;;
809;SDS011;387;48.772;9.186;2023-07-09T15:13:15;6.60;;;3.97;;
809;SDS011;387;48.772;9.186;2023-07-09T15:15:44;6.63;;;4.03;;
809;SDS011;387;48.772;9.186;2023-07-09T15:18:11;6.23;;;4.37;;
809;SDS011;387;48.772;9.186;2023-07-09T15:23:09;6.50;;;4.10;;
809;SDS011;387;48.772;9.186;2023-07-09T15:25:36;9.27;;;4.43;;
809;SDS011;387;48.772;9.186;2023-07-09T15:28:01;8.13;;;5.00;;
809;SDS011;387;48.772;9.186;2023-07-09T15:30:27;10.50;;;4.13;;
809;SDS011;387;48.772;9.186;2023-07-09T15:32:58;5.53;;;3.90;;
809;SDS011;387;48.772;9.186;2023-07-09T15:35:26;5.90;;;4.17;;
809;SDS011;387;48.772;9.186;2023-07-09T15:37:56;8.20;;;4.07;;
809;SDS011;387;48.772;9.186;2023-07-09T15:40:23;8.17;;;5.00;;
809;SDS011;387;48.772;9.186;2023-07-09T15:42:53;6.53;;;4.57;;
809;SDS011;387;48.772;9.186;2023-07-09T15:45:21;8.50;;;4.67;;
809;SDS011;387;48.772;9.186;2023-07-09T15:47:49;7.10;;;4.00;;
809;SDS011;387;48.772;9.186;2023-07-09T15:50:23;4.87;;;3.80;;
809;SDS011;387;48.772;9.186;2023-07-09T15:52:53;10.03;;;4.53;;
809;SDS011;387;48.772;9.186;2023-07-09T15:55:26;7.40;;;3.70;;
809;SDS011;387;48.772;9.186;2023-07-09T15:57:53;9.00;;;5.27;;
809;SDS011;387;48.772;9.186;2023-07-09T16:00:25;9.27;;;4.33;;
809;SDS011;387;48.772;9.186;2023-07-09T16:02:52;6.53;;;4.17;;
809;SDS011;387;48.772;9.186;2023-07-09T16:07:48;6.93;;;4.93;;
809;SDS011;387;48.772;9.186;2023-07-09T16:10:15;7.20;;;4.20;;
809;SDS011;387;48.772;9.186;2023-07-09T16:12:41;9.73;;;4.60;;
809;SDS011;387;48.772;9.186;2023-07-09T16:15:11;8.70;;;4.80;;
809;SDS011;387;48.772;9.186;2023-07-09T16:17:37;6.57;;;4.30;;
809;SDS011;387;48.772;9.186;2023-07-09T16:20:03;8.10;;;4.30;;
809;SDS011;387;48.772;9.186;2023-07-09T16:22:30;7.27;;;4.47;;
809;SDS011;387;48.772;9.186;2023-07-09T16:24:56;8.93;;;4.70;;
809;SDS011;387;48.772;9.186;2023-07-09T16:27:22;7.73;;;4.20;;
809;SDS011;387;48.772;9.186;2023-07-09T16:29:48;9.83;;;4.27;;
809;SDS011;387;48.772;9.186;2023-07-09T16:32:15;6.50;;;4.07;;
809;SDS011;387;48.772;9.186;2023-07-09T16:34:40;8.53;;;5.03;;
809;SDS011;387;48.772;9.186;2023-07-09T16:37:07;5.67;;;4.37;;
809;SDS011;387;48.772;9.186;2023-07-09T16:39:45;6.53;;;4.30;;
809;SDS011;387;48.772;9.186;2023-07-09T16:42:11;6.40;;;5.00;;
809;SDS011;387;48.772;9.186;2023-07-09T16:44:39;6.60;;;4.63;;
809;SDS011;387;48.772;9.186;2023-07-09T16:47:10;6.53;;;4.30;;